首页
METAR-TAF:

METAR-TAF

机场 :

Wadesboro, 北卡罗来纳州, 美国

纬度: 35-01-14N, 经度: 080-04-38W, 海拔: 91米

当前天气观测

该预报发布于18分钟前的04:20 UTC
风速3节,风向西北
温度 3°C
湿度 100%
气压 1021 hPa
能見度: 6.4公里
阴天层高于400英尺
轻雾

METAR: KAFP 210420Z AUTO 31003KT 4SM BR OVC004 03/03 A3015 RMK AO2 T00340025

时间: 23:38 (04:38 UTC)


TAF: 丢失

超过4000个机场的气象观测和天气预报(METAR&TAF报告)。

可查询的气象台以黄色和红色小点在地图上表示。

将鼠标移到小点上方,可查看气象台名称。

然后点击查看天气观测和预报。

如需切换地图:点击带黑十字的绿色按钮放大地图;点击带横线的绿色按钮缩小地图;或者点击绿色箭头查看邻近地区的地图。


METAR-TAF: